createdAt,value
2018-08-03T00:00:30.619Z,90.30
2018-08-03T00:03:01.114Z,90.20
2018-08-03T00:05:31.403Z,90.30
2018-08-03T00:13:01.661Z,90.40
2018-08-03T00:15:31.838Z,90.60
2018-08-03T00:18:02.288Z,90.40
2018-08-03T00:20:32.512Z,90.20
2018-08-03T00:25:35.053Z,90.40
2018-08-03T00:30:35.363Z,90.40
2018-08-03T00:33:05.679Z,90.30
2018-08-03T00:39:02.452Z,90.20
2018-08-03T00:41:32.736Z,90.30
2018-08-03T00:44:02.993Z,90.30
2018-08-03T00:46:33.286Z,90.70
2018-08-03T00:49:03.540Z,90.50
2018-08-03T00:51:34.596Z,90.50
2018-08-03T00:54:05.033Z,90.60
2018-08-03T00:56:35.481Z,90.60
2018-08-03T00:59:05.870Z,90.50
2018-08-03T01:01:36.213Z,90.50
2018-08-03T01:04:06.562Z,90.60
2018-08-03T01:06:36.904Z,90.50
2018-08-03T01:09:11.405Z,90.40
2018-08-03T01:11:41.895Z,90.40
2018-08-03T01:14:12.186Z,88.90
2018-08-03T01:21:45.590Z,89.00
2018-08-03T01:26:45.790Z,83.40
2018-08-03T01:29:16.069Z,87.40
2018-08-03T01:34:16.557Z,87.20
2018-08-03T01:36:46.832Z,86.90
2018-08-03T01:39:17.220Z,87.20
2018-08-03T01:41:47.403Z,86.50
2018-08-03T01:46:48.258Z,85.80
2018-08-03T01:54:18.314Z,85.20
2018-08-03T01:59:18.553Z,85.20
2018-08-03T02:09:18.806Z,84.80
2018-08-03T02:11:49.047Z,84.80
2018-08-03T02:19:20.165Z,79.30
2018-08-03T02:24:20.361Z,84.60
2018-08-03T02:29:20.524Z,84.70
2018-08-03T02:31:50.746Z,75.20
2018-08-03T02:34:20.953Z,84.40
2018-08-03T02:39:21.708Z,84.60
2018-08-03T02:41:51.932Z,84.70
2018-08-03T02:44:23.007Z,84.80
2018-08-03T02:49:23.193Z,85.40
2018-08-03T02:54:23.841Z,85.30
2018-08-03T02:59:23.959Z,85.30
2018-08-03T03:01:54.394Z,85.30
2018-08-03T03:14:24.835Z,85.00
2018-08-03T03:16:55.109Z,85.00
2018-08-03T03:19:25.364Z,84.60
2018-08-03T03:21:55.973Z,77.80
2018-08-03T03:26:56.260Z,82.40
2018-08-03T03:29:26.970Z,84.70
2018-08-03T03:31:57.232Z,84.60
2018-08-03T03:36:57.456Z,84.90
2018-08-03T03:39:27.878Z,84.40
2018-08-03T03:41:59.269Z,84.70
2018-08-03T03:44:29.532Z,84.40
2018-08-03T03:49:29.870Z,79.60
2018-08-03T03:52:00.269Z,84.00
2018-08-03T04:02:00.678Z,83.60
2018-08-03T04:07:00.915Z,84.40
2018-08-03T04:09:31.085Z,83.90
2018-08-03T04:12:01.317Z,83.80
2018-08-03T04:17:02.523Z,83.20
2018-08-03T04:22:08.903Z,83.10
2018-08-03T04:24:39.363Z,82.60
2018-08-03T04:27:09.648Z,82.60
2018-08-03T04:34:42.107Z,78.10
2018-08-03T04:37:12.502Z,82.10
2018-08-03T04:42:12.710Z,81.70
2018-08-03T04:44:43.012Z,82.00
2018-08-03T04:47:13.277Z,82.20
2018-08-03T04:49:43.835Z,81.90
2018-08-03T04:52:14.175Z,81.50
2018-08-03T04:54:44.356Z,81.90
2018-08-03T04:57:14.512Z,81.20
2018-08-03T04:59:44.791Z,81.10
2018-08-03T05:02:15.093Z,80.00
2018-08-03T05:04:46.565Z,80.10
2018-08-03T05:09:46.484Z,80.20
2018-08-03T05:14:46.552Z,79.80
2018-08-03T05:17:16.865Z,81.20
2018-08-03T05:19:47.152Z,70.30
2018-08-03T05:22:17.447Z,79.70
2018-08-03T05:24:47.736Z,79.50
2018-08-03T05:27:18.519Z,78.50
2018-08-03T05:29:48.814Z,78.40
2018-08-03T05:32:19.056Z,77.90
2018-08-03T05:34:49.254Z,77.80
2018-08-03T05:37:19.433Z,77.80
2018-08-03T05:42:20.454Z,78.00
2018-08-03T05:47:21.461Z,77.80
2018-08-03T05:49:51.737Z,72.40
2018-08-03T05:52:22.014Z,77.40
2018-08-03T05:57:22.311Z,75.60
2018-08-03T05:59:52.471Z,69.30
2018-08-03T06:02:22.766Z,75.10
2018-08-03T06:07:23.041Z,74.10
2018-08-03T06:09:53.334Z,72.80
2018-08-03T06:12:23.541Z,72.50
2018-08-03T06:14:53.855Z,72.60
2018-08-03T06:19:53.952Z,71.50
2018-08-03T06:24:54.223Z,71.20
2018-08-03T06:27:24.408Z,71.70
2018-08-03T06:29:54.574Z,71.50
2018-08-03T06:32:24.673Z,64.80
2018-08-03T06:34:54.822Z,70.10
2018-08-03T06:37:25.019Z,70.00
2018-08-03T06:39:55.165Z,69.40
2018-08-03T06:42:29.055Z,68.60
2018-08-03T06:44:59.294Z,69.40
2018-08-03T06:47:30.047Z,68.80
2018-08-03T06:52:32.481Z,67.30
2018-08-03T06:55:02.672Z,67.60
2018-08-03T06:57:32.801Z,66.60
2018-08-03T07:00:02.955Z,65.70
2018-08-03T07:02:33.035Z,65.90
2018-08-03T07:05:03.158Z,65.50
2018-08-03T07:12:34.227Z,64.80
2018-08-03T07:15:04.560Z,65.80
2018-08-03T07:20:39.180Z,63.60
2018-08-03T07:23:09.437Z,64.50
2018-08-03T07:25:39.602Z,63.00
2018-08-03T07:28:09.855Z,57.40
2018-08-03T07:33:09.672Z,62.30
2018-08-03T07:35:40.202Z,62.20
2018-08-03T07:43:10.981Z,62.30
2018-08-03T07:45:41.188Z,62.20
2018-08-03T07:48:11.452Z,61.50
2018-08-03T07:50:41.771Z,61.00
2018-08-03T07:53:12.064Z,60.50
2018-08-03T07:55:42.342Z,60.00
2018-08-03T07:58:12.552Z,60.70
2018-08-03T08:00:42.752Z,60.10
2018-08-03T08:03:13.013Z,60.30
2018-08-03T08:05:43.211Z,56.90
2018-08-03T08:08:14.053Z,61.10
2018-08-03T08:15:43.976Z,62.20
2018-08-03T08:18:14.151Z,62.10
2018-08-03T08:25:44.015Z,60.40
2018-08-03T08:33:16.870Z,59.90
2018-08-03T08:35:47.110Z,60.00
2018-08-03T08:38:17.351Z,59.80
2018-08-03T08:40:48.634Z,59.70
2018-08-03T08:45:49.472Z,59.00
2018-08-03T08:55:49.279Z,57.90
2018-08-03T08:58:19.543Z,56.90
2018-08-03T09:03:19.629Z,54.90
2018-08-03T09:05:49.905Z,56.40
2018-08-03T09:08:20.182Z,55.90
2018-08-03T09:10:50.395Z,55.80
2018-08-03T09:13:24.570Z,56.60
2018-08-03T09:15:54.982Z,55.50
2018-08-03T09:23:25.120Z,56.30
2018-08-03T09:28:26.649Z,53.20
2018-08-03T09:30:57.610Z,55.90
2018-08-03T09:33:28.750Z,55.80
2018-08-03T09:35:58.967Z,56.70
2018-08-03T09:38:29.780Z,56.50
2018-08-03T09:41:00.004Z,57.90
2018-08-03T09:43:31.558Z,56.80
2018-08-03T09:46:01.737Z,57.30
2018-08-03T09:51:01.949Z,56.60
2018-08-03T09:56:01.955Z,57.50
2018-08-03T10:01:07.479Z,57.00
2018-08-03T10:03:37.763Z,58.00
2018-08-03T10:06:09.547Z,52.90
2018-08-03T10:08:39.933Z,56.90
2018-08-03T10:13:40.471Z,56.80
2018-08-03T10:18:40.539Z,56.30
2018-08-03T10:21:10.855Z,55.80
2018-08-03T10:23:41.204Z,56.80
2018-08-03T10:26:13.293Z,52.70
2018-08-03T10:28:43.898Z,56.10
2018-08-03T10:38:44.390Z,56.20
2018-08-03T10:41:14.844Z,56.30
2018-08-03T10:48:45.224Z,55.40
2018-08-03T10:56:15.239Z,53.80
2018-08-03T11:01:15.666Z,54.30
2018-08-03T11:03:45.967Z,54.10
2018-08-03T11:06:16.263Z,54.00
2018-08-03T11:11:16.996Z,53.20
2018-08-03T11:13:47.419Z,54.00
2018-08-03T11:18:47.525Z,54.50
2018-08-03T11:26:17.495Z,54.70
2018-08-03T11:28:47.627Z,53.70
2018-08-03T11:31:18.018Z,53.80
2018-08-03T11:38:48.173Z,55.30
2018-08-03T11:41:19.224Z,54.30
2018-08-03T11:43:50.440Z,54.80
2018-08-03T11:48:50.800Z,49.50
2018-08-03T11:51:21.153Z,54.20
2018-08-03T11:53:51.428Z,54.30
2018-08-03T11:56:21.716Z,53.50
2018-08-03T12:01:21.925Z,54.00
2018-08-03T12:03:52.196Z,54.40
2018-08-03T12:06:22.591Z,53.10
2018-08-03T12:08:53.019Z,53.90
2018-08-03T12:11:23.323Z,53.70
2018-08-03T12:13:53.564Z,54.20
2018-08-03T12:18:53.828Z,52.70
2018-08-03T12:21:23.978Z,57.90
2018-08-03T12:23:54.363Z,53.30
2018-08-03T12:26:24.680Z,52.80
2018-08-03T12:28:54.926Z,52.60
2018-08-03T12:31:25.207Z,53.00
2018-08-03T12:33:55.452Z,52.50
2018-08-03T12:36:25.666Z,52.70
2018-08-03T12:38:56.039Z,56.80
2018-08-03T12:41:26.355Z,52.10
2018-08-03T12:43:56.599Z,51.20
2018-08-03T12:48:56.693Z,52.40
2018-08-03T12:51:27.092Z,49.10
2018-08-03T12:53:59.458Z,52.50
2018-08-03T12:56:29.778Z,54.10
2018-08-03T12:59:00.070Z,52.60
2018-08-03T13:01:30.334Z,53.60
2018-08-03T13:09:01.364Z,52.70
2018-08-03T13:14:01.514Z,52.60
2018-08-03T13:16:31.792Z,54.20
2018-08-03T13:19:02.197Z,52.90
2018-08-03T13:24:05.989Z,52.70
2018-08-03T13:26:36.563Z,53.80
2018-08-03T13:29:07.130Z,53.70
2018-08-03T13:34:07.867Z,53.60
2018-08-03T13:36:38.398Z,54.00
2018-08-03T13:39:09.779Z,54.90
2018-08-03T13:44:10.043Z,53.00
2018-08-03T13:46:40.308Z,52.40
2018-08-03T13:49:11.265Z,53.80
2018-08-03T13:51:41.521Z,52.70
2018-08-03T13:54:11.763Z,52.00
2018-08-03T13:56:42.531Z,52.10
2018-08-03T13:59:14.194Z,53.30
2018-08-03T14:02:01.462Z,52.10
2018-08-03T14:04:31.795Z,51.10
2018-08-03T14:07:02.150Z,47.10
2018-08-03T14:09:32.455Z,52.10
2018-08-03T14:14:32.816Z,52.70
2018-08-03T14:17:03.084Z,51.00
2018-08-03T14:19:33.439Z,58.80
2018-08-03T14:22:03.846Z,55.60
2018-08-03T14:27:05.004Z,53.70
2018-08-03T14:34:35.843Z,54.00
2018-08-03T14:37:07.173Z,54.40
2018-08-03T14:39:37.281Z,54.90
2018-08-03T14:42:07.522Z,55.60
2018-08-03T14:44:37.626Z,54.30
2018-08-03T14:49:37.483Z,53.90
2018-08-03T14:52:07.548Z,53.80
2018-08-03T14:54:37.713Z,53.80
2018-08-03T15:02:15.570Z,52.70
2018-08-03T15:04:45.726Z,52.40
2018-08-03T15:07:15.925Z,51.90
2018-08-03T15:09:46.140Z,51.50
2018-08-03T15:12:16.213Z,53.00
2018-08-03T15:14:46.369Z,52.30
2018-08-03T15:17:16.522Z,52.30
2018-08-03T15:19:48.022Z,55.30
2018-08-03T15:24:48.233Z,53.00
2018-08-03T15:27:18.416Z,52.80
2018-08-03T15:29:48.608Z,52.70
2018-08-03T15:34:48.679Z,53.80
2018-08-03T15:37:18.936Z,52.90
2018-08-03T15:39:49.124Z,57.30
2018-08-03T15:42:19.347Z,57.90
2018-08-03T15:47:19.579Z,54.10
2018-08-03T15:52:19.663Z,58.80
2018-08-03T15:54:50.074Z,54.50
2018-08-03T15:59:50.273Z,56.30
2018-08-03T16:02:20.548Z,53.70
2018-08-03T16:09:50.536Z,61.20
2018-08-03T16:12:20.740Z,58.40
2018-08-03T16:14:51.021Z,57.40
2018-08-03T16:17:21.301Z,59.20
2018-08-03T16:22:21.488Z,57.10
2018-08-03T16:24:51.864Z,59.10
2018-08-03T16:27:22.235Z,55.80
2018-08-03T16:29:52.528Z,57.00
2018-08-03T16:32:22.689Z,55.10
2018-08-03T16:34:53.043Z,56.40
2018-08-03T16:39:53.367Z,55.20
2018-08-03T16:42:23.603Z,55.10
2018-08-03T16:44:54.121Z,54.70
2018-08-03T16:47:25.180Z,54.80
2018-08-03T16:49:56.393Z,57.20
2018-08-03T16:54:57.265Z,54.20
2018-08-03T16:57:27.615Z,54.60
2018-08-03T16:59:57.849Z,48.70
2018-08-03T17:02:28.285Z,54.30
2018-08-03T17:04:59.040Z,55.10
2018-08-03T17:07:29.272Z,55.10
2018-08-03T17:09:59.539Z,55.00
2018-08-03T17:12:29.791Z,58.20
2018-08-03T17:15:00.633Z,55.80
2018-08-03T17:17:30.981Z,55.30
2018-08-03T17:20:02.431Z,54.90
2018-08-03T17:22:32.682Z,55.30
2018-08-03T17:25:03.105Z,55.60
2018-08-03T17:27:34.024Z,55.40
2018-08-03T17:30:05.051Z,56.20
2018-08-03T17:32:35.236Z,56.20
2018-08-03T17:35:05.649Z,55.50
2018-08-03T17:37:35.807Z,55.40
2018-08-03T17:42:36.192Z,55.50
2018-08-03T17:45:06.494Z,52.20
2018-08-03T17:50:06.693Z,54.00
2018-08-03T17:52:36.917Z,54.40
2018-08-03T17:57:37.101Z,53.60
2018-08-03T18:00:07.984Z,54.30
2018-08-03T18:05:08.064Z,53.90
2018-08-03T18:07:38.424Z,54.30
2018-08-03T18:10:09.088Z,53.60
2018-08-03T18:12:39.543Z,53.60
2018-08-03T18:15:09.930Z,54.90
2018-08-03T18:17:41.009Z,54.00
2018-08-03T18:20:11.394Z,54.40
2018-08-03T18:22:41.618Z,54.20
2018-08-03T18:25:11.926Z,54.60
2018-08-03T18:27:42.149Z,54.50
2018-08-03T18:40:11.940Z,55.70
2018-08-03T18:42:42.131Z,55.90
2018-08-03T18:47:42.055Z,56.50
2018-08-03T18:52:42.223Z,55.40
2018-08-03T18:55:12.421Z,56.00
2018-08-03T18:57:42.582Z,59.60
2018-08-03T19:02:42.759Z,61.20
2018-08-03T19:07:42.797Z,62.80
2018-08-03T19:10:13.126Z,62.90
2018-08-03T19:12:43.317Z,63.20
2018-08-03T19:15:13.716Z,57.70
2018-08-03T19:17:43.887Z,65.40
2018-08-03T19:20:14.186Z,59.60
2018-08-03T19:22:44.448Z,65.60
2018-08-03T19:25:14.670Z,66.70
2018-08-03T19:27:44.885Z,67.30
2018-08-03T19:30:15.121Z,64.70
2018-08-03T19:32:45.435Z,67.80
2018-08-03T19:35:15.572Z,68.90
2018-08-03T19:37:45.896Z,68.80
2018-08-03T19:40:16.052Z,69.20
2018-08-03T19:50:16.145Z,70.40
2018-08-03T19:52:46.455Z,70.40
2018-08-03T19:55:17.508Z,70.70
2018-08-03T20:00:17.646Z,72.30
2018-08-03T20:05:17.746Z,72.70
2018-08-03T20:07:48.056Z,72.90
2018-08-03T20:10:18.360Z,73.80
2018-08-03T20:12:48.686Z,73.50
2018-08-03T20:17:48.748Z,73.80
2018-08-03T20:25:18.848Z,75.20
2018-08-03T20:27:49.112Z,75.60
2018-08-03T20:30:19.436Z,75.60
2018-08-03T20:32:49.704Z,75.80
2018-08-03T20:35:20.189Z,76.20
2018-08-03T20:37:50.440Z,77.00
2018-08-03T20:40:20.718Z,76.80
2018-08-03T20:42:51.142Z,76.80
2018-08-03T20:45:21.320Z,73.60
2018-08-03T20:47:51.494Z,77.60
2018-08-03T20:52:51.536Z,77.80
2018-08-03T20:55:21.754Z,73.70
2018-08-03T20:57:51.985Z,71.70
2018-08-03T21:02:53.313Z,68.90
2018-08-03T21:05:23.495Z,68.10
2018-08-03T21:10:24.051Z,65.60
2018-08-03T21:12:54.151Z,64.90
2018-08-03T21:15:24.470Z,65.00
2018-08-03T21:17:54.701Z,64.30
2018-08-03T21:29:53.750Z,64.20
2018-08-03T21:35:15.601Z,63.20
2018-08-03T21:37:45.901Z,63.20
2018-08-03T21:40:16.064Z,63.30
2018-08-03T21:42:51.969Z,63.90
2018-08-03T21:45:22.121Z,63.30
2018-08-03T21:47:53.635Z,62.70
2018-08-03T21:50:23.783Z,63.00
2018-08-03T21:52:53.907Z,63.60
2018-08-03T21:55:25.036Z,68.30
2018-08-03T21:57:55.566Z,64.10
2018-08-03T22:02:55.556Z,63.70
2018-08-03T22:10:25.232Z,64.60
2018-08-03T22:12:55.354Z,64.60
2018-08-03T22:15:26.611Z,64.40
2018-08-03T22:18:03.740Z,64.00
2018-08-03T22:20:35.095Z,65.00
2018-08-03T22:25:35.108Z,64.80
2018-08-03T22:28:05.367Z,65.00
2018-08-03T22:33:11.570Z,65.10
2018-08-03T22:35:41.780Z,64.70
2018-08-03T22:38:12.737Z,64.70
2018-08-03T22:43:30.811Z,65.40
2018-08-03T22:46:02.237Z,64.90
2018-08-03T22:53:42.592Z,64.50
2018-08-03T22:56:12.717Z,64.80
2018-08-03T22:58:43.089Z,65.00
2018-08-03T23:04:05.761Z,63.80
2018-08-03T23:09:22.796Z,64.80
2018-08-03T23:12:04.004Z,64.40
2018-08-03T23:14:34.129Z,65.20
2018-08-03T23:17:04.229Z,64.70
2018-08-03T23:19:34.308Z,65.70
2018-08-03T23:22:04.422Z,59.30
2018-08-03T23:24:34.512Z,65.20
2018-08-03T23:27:05.241Z,59.50
2018-08-03T23:29:35.990Z,64.60
2018-08-03T23:32:06.104Z,65.30
2018-08-03T23:34:36.197Z,64.90
2018-08-03T23:39:36.088Z,65.40
2018-08-03T23:42:06.352Z,65.00
2018-08-03T23:44:36.480Z,62.50
2018-08-03T23:49:36.401Z,69.90
2018-08-03T23:52:06.781Z,65.80
2018-08-03T23:59:54.951Z,65.60
